Time;durP1;ratioP1;P1;durP2;ratioP2;P2;SDS_P1;SDS_P2;PMS_P1;PMS_P2;Temp;Humidity;BMP_temperature;BMP_pressure;BME280_temperature;BME280_humidity;BME280_pressure;Samples;Min_cycle;Max_cycle;Signal;HPM_P1;HPM_P2
2024/01/09 00:02:17;;;;;;;;;16.00;10.75;;;;;0.64;65.52;102401.41;5078187;28;72148;-52
2024/01/09 00:04:43;;;;;;;;;15.50;12.00;;;;;0.66;65.45;102401.44;5072850;28;45502;-53
2024/01/09 00:07:08;;;;;;;;;20.00;15.00;;;;;0.64;64.34;102403.16;5076820;28;45644;-50
2024/01/09 00:09:34;;;;;;;;;17.75;13.25;;;;;0.63;64.25;102396.16;5067632;28;75665;-53
2024/01/09 00:12:00;;;;;;;;;16.25;9.50;;;;;0.61;63.72;102396.13;5069749;28;45363;-53
2024/01/09 00:14:25;;;;;;;;;18.25;16.00;;;;;0.61;63.84;102403.09;5071077;28;62055;-50
2024/01/09 00:16:50;;;;;;;;;15.00;10.00;;;;;0.64;63.97;102395.31;5073727;28;69442;-52
2024/01/09 00:19:16;;;;;;;;;21.00;15.25;;;;;0.66;63.75;102396.19;5063859;28;65169;-54
2024/01/09 00:21:41;;;;;;;;;17.00;14.75;;;;;0.68;62.89;102396.22;5072075;28;45435;-54
2024/01/09 00:24:07;;;;;;;;;15.00;14.00;;;;;0.65;63.76;102392.72;5066425;28;69538;-56
2024/01/09 00:26:42;;;;;;;;;16.25;14.25;;;;;0.60;62.55;102386.50;5069056;28;45362;-50
2024/01/09 00:29:08;;;;;;;;;23.75;14.25;;;;;0.58;62.47;102385.59;5050702;28;47165;-50
2024/01/09 00:31:33;;;;;;;;;12.25;10.75;;;;;0.57;63.27;102380.34;5067476;28;45411;-55
2024/01/09 00:33:59;;;;;;;;;15.75;12.00;;;;;0.57;61.78;102386.44;5068426;28;45438;-52
2024/01/09 00:36:24;;;;;;;;;16.75;12.25;;;;;0.58;62.06;102376.88;5079051;28;45412;-54
2024/01/09 00:38:49;;;;;;;;;9.25;9.25;;;;;0.58;63.21;102375.13;5065324;28;46098;-54
2024/01/09 00:41:15;;;;;;;;;0.00;0.00;;;;;0.59;63.12;102373.41;5070546;28;45402;-53
2024/01/09 00:43:40;;;;;;;;;14.00;11.75;;;;;0.62;62.27;102362.97;5067237;28;65277;-53
2024/01/09 00:46:05;;;;;;;;;7.50;6.50;;;;;0.64;62.45;102363.88;5055501;28;72772;-53
2024/01/09 00:48:31;;;;;;;;;11.00;10.75;;;;;0.63;61.24;102362.09;5063816;28;75643;-53
2024/01/09 00:50:56;;;;;;;;;14.50;12.75;;;;;0.60;61.62;102356.81;5077492;28;66347;-53
2024/01/09 00:53:21;;;;;;;;;9.00;6.75;;;;;0.60;62.11;102373.41;5077415;28;65264;-53
2024/01/09 00:55:47;;;;;;;;;16.75;14.50;;;;;0.61;60.77;102369.03;5069805;28;46183;-52
2024/01/09 00:58:12;;;;;;;;;11.00;10.00;;;;;0.59;61.05;102360.28;5061791;28;46225;-54
2024/01/09 01:00:37;;;;;;;;;6.75;6.75;;;;;0.56;61.67;102366.38;5069060;28;45445;-54
2024/01/09 01:03:03;;;;;;;;;13.75;11.50;;;;;0.55;61.13;102371.56;5057423;28;68341;-50
2024/01/09 01:05:28;;;;;;;;;13.75;10.00;;;;;0.54;60.89;102364.56;5059303;28;45388;-56
2024/01/09 01:07:54;;;;;;;;;5.50;5.50;;;;;0.52;60.62;102363.66;5069495;28;46018;-50
2024/01/09 01:10:19;;;;;;;;;11.50;10.75;;;;;0.48;61.19;102367.94;5049931;28;45823;-51
2024/01/09 01:12:45;;;;;;;;;16.50;10.00;;;;;0.46;60.61;102367.06;5067590;28;45929;-53
2024/01/09 01:15:10;;;;;;;;;15.75;10.00;;;;;0.47;60.40;102363.56;5047651;28;71648;-51
2024/01/09 01:17:35;;;;;;;;;5.75;5.75;;;;;0.45;60.84;102350.44;5066148;28;45533;-51
2024/01/09 01:20:02;;;;;;;;;15.50;11.00;;;;;0.49;60.23;102361.88;5056888;28;45818;-53
2024/01/09 01:22:27;;;;;;;;;6.00;6.00;;;;;0.49;60.28;102360.13;5063757;28;45604;-55
2024/01/09 01:24:53;;;;;;;;;10.00;10.00;;;;;0.49;60.45;102354.88;5054019;28;45473;-52
2024/01/09 01:27:18;;;;;;;;;6.50;6.50;;;;;0.53;60.10;102358.44;5072708;28;45622;-53
2024/01/09 01:29:43;;;;;;;;;5.50;5.00;;;;;0.53;59.94;102353.19;5061925;28;72858;-53
2024/01/09 01:32:10;;;;;;;;;11.25;10.50;;;;;0.54;60.89;102359.34;5076782;28;65943;-53
2024/01/09 01:34:38;;;;;;;;;6.75;6.00;;;;;0.55;60.49;102355.84;5071821;28;45388;-50
2024/01/09 01:37:04;;;;;;;;;9.00;9.00;;;;;0.53;59.63;102360.19;5061708;28;45363;-54
2024/01/09 01:39:30;;;;;;;;;11.25;7.00;;;;;0.49;59.10;102359.25;5068222;28;45674;-53
2024/01/09 01:41:55;;;;;;;;;7.75;6.25;;;;;0.53;60.16;102358.44;5066522;28;63042;-52
2024/01/09 01:44:22;;;;;;;;;7.25;7.25;;;;;0.56;60.32;102357.59;5067233;28;69593;-55
2024/01/09 01:46:48;;;;;;;;;9.50;8.00;;;;;0.58;60.29;102362.00;5071609;28;46154;-53
2024/01/09 01:49:16;;;;;;;;;13.00;8.25;;;;;0.60;59.07;102356.81;5073656;28;45894;-51
2024/01/09 01:51:43;;;;;;;;;12.75;9.50;;;;;0.59;59.51;102369.03;5055370;28;45309;-54
2024/01/09 01:54:08;;;;;;;;;12.25;7.25;;;;;0.54;58.80;102370.69;5047601;28;45463;-53
2024/01/09 01:56:34;;;;;;;;;9.75;7.75;;;;;0.53;59.21;102365.44;5072816;28;74336;-52
2024/01/09 01:59:00;;;;;;;;;8.00;7.00;;;;;0.48;59.03;102365.34;5062829;28;70086;-52
2024/01/09 02:01:26;;;;;;;;;9.00;9.00;;;;;0.51;59.81;102361.88;5054202;28;45583;-51
2024/01/09 02:03:52;;;;;;;;;3.50;2.00;;;;;0.49;58.86;102361.88;5040916;28;68154;-51
2024/01/09 02:06:18;;;;;;;;;13.50;11.00;;;;;0.48;59.23;102373.19;5062450;28;74577;-53
2024/01/09 02:08:43;;;;;;;;;7.50;7.50;;;;;0.46;59.55;102365.31;5070090;28;45457;-48
2024/01/09 02:11:10;;;;;;;;;15.00;10.00;;;;;0.47;59.52;102367.09;5076532;28;45969;-53
2024/01/09 02:13:35;;;;;;;;;11.00;8.50;;;;;0.41;58.33;102363.50;5070472;28;45410;-50
2024/01/09 02:16:00;;;;;;;;;7.00;6.50;;;;;0.35;57.85;102356.38;5071316;28;45414;-51
2024/01/09 02:18:26;;;;;;;;;5.50;5.50;;;;;0.36;59.18;102358.16;5069082;28;71788;-53
2024/01/09 02:20:52;;;;;;;;;13.50;11.00;;;;;0.38;59.55;102356.47;5061775;28;45718;-50
2024/01/09 02:23:17;;;;;;;;;6.50;5.25;;;;;0.39;59.73;102357.31;5079549;28;45305;-52
2024/01/09 02:25:43;;;;;;;;;14.00;7.75;;;;;0.38;59.41;102359.06;5060218;28;72895;-53
2024/01/09 02:28:15;;;;;;;;;12.25;10.50;;;;;0.42;59.24;102360.88;5060988;28;71776;-52
2024/01/09 02:30:41;;;;;;;;;11.25;7.50;;;;;0.41;58.86;102360.88;5078171;28;45419;-54
2024/01/09 02:33:07;;;;;;;;;10.50;7.50;;;;;0.37;58.14;102359.06;5076795;28;45422;-51
2024/01/09 02:35:32;;;;;;;;;14.75;10.50;;;;;0.33;58.62;102351.13;5072400;28;50971;-54
2024/01/09 02:37:58;;;;;;;;;5.00;5.00;;;;;0.30;59.43;102348.47;5068323;28;68608;-53
2024/01/09 02:40:23;;;;;;;;;9.25;7.50;;;;;0.32;59.71;102357.22;5072480;28;48159;-54
2024/01/09 02:42:49;;;;;;;;;11.50;6.25;;;;;0.33;59.11;102345.03;5072929;28;51784;-52
2024/01/09 02:45:14;;;;;;;;;6.25;6.25;;;;;0.36;59.27;102352.06;5067320;28;45456;-56
2024/01/09 02:47:39;;;;;;;;;13.50;9.75;;;;;0.37;58.30;102352.06;5077414;28;60620;-50
2024/01/09 02:50:05;;;;;;;;;11.25;8.75;;;;;0.38;58.30;102351.22;5042736;28;69919;-52
2024/01/09 02:52:31;;;;;;;;;11.25;9.50;;;;;0.39;58.56;102350.38;5062614;28;46772;-47
2024/01/09 02:54:56;;;;;;;;;12.75;9.75;;;;;0.37;59.35;102353.81;5062124;28;74402;-50
2024/01/09 02:57:21;;;;;;;;;11.75;10.00;;;;;0.38;59.30;102346.00;5061686;28;67567;-54
2024/01/09 02:59:47;;;;;;;;;12.25;10.00;;;;;0.39;58.68;102355.63;5069739;28;45777;-52
2024/01/09 03:02:12;;;;;;;;;8.25;8.25;;;;;0.38;59.00;102351.22;5070058;28;62900;-51
2024/01/09 03:04:37;;;;;;;;;12.50;9.50;;;;;0.39;58.87;102353.00;5077053;28;74158;-52
2024/01/09 03:07:03;;;;;;;;;9.00;7.75;;;;;0.39;59.52;102350.38;5071024;28;52269;-50
2024/01/09 03:09:29;;;;;;;;;11.75;7.00;;;;;0.40;59.00;102353.88;5069040;28;45489;-52
2024/01/09 03:11:54;;;;;;;;;9.50;7.00;;;;;0.40;58.44;102346.00;5045131;28;45426;-49
2024/01/09 03:14:19;;;;;;;;;7.25;5.25;;;;;0.39;58.29;102337.28;5073201;28;67017;-52
2024/01/09 03:16:48;;;;;;;;;15.75;6.00;;;;;0.39;58.17;102339.91;5072739;28;45465;-48
2024/01/09 03:19:14;;;;;;;;;8.25;8.25;;;;;0.35;58.80;102343.28;5067408;28;45432;-49
2024/01/09 03:21:39;;;;;;;;;6.25;6.25;;;;;0.28;59.13;102337.09;5076007;28;45371;-52
2024/01/09 03:24:04;;;;;;;;;10.00;8.25;;;;;0.25;58.23;102330.91;5065057;28;46816;-52
2024/01/09 03:26:30;;;;;;;;;9.25;6.00;;;;;0.21;58.83;102332.59;5073855;28;58810;-51
2024/01/09 03:28:55;;;;;;;;;7.00;6.00;;;;;0.22;59.15;102338.72;5073022;28;45449;-52
2024/01/09 03:31:21;;;;;;;;;12.00;10.25;;;;;0.20;58.75;102336.06;5064848;28;45543;-50
2024/01/09 03:33:47;;;;;;;;;9.25;6.50;;;;;0.18;58.51;102331.66;5057226;28;48239;-49
2024/01/09 03:36:13;;;;;;;;;11.00;11.00;;;;;0.15;58.92;102335.97;5061445;28;46021;-52
2024/01/09 03:38:38;;;;;;;;;7.50;6.00;;;;;0.14;58.53;102328.09;5061724;28;45482;-51
2024/01/09 03:41:04;;;;;;;;;16.00;8.75;;;;;0.18;59.36;102337.78;5072779;28;45483;-53
2024/01/09 03:43:29;;;;;;;;;8.25;5.75;;;;;0.21;58.93;102334.31;5070047;28;68915;-53
2024/01/09 03:45:56;;;;;;;;;4.00;4.00;;;;;0.25;59.21;102330.91;5063901;28;70932;-53
2024/01/09 03:48:22;;;;;;;;;7.00;7.00;;;;;0.29;58.96;102327.50;5071224;28;45379;-50
2024/01/09 03:50:47;;;;;;;;;7.00;7.00;;;;;0.30;58.92;102318.78;5068138;28;45463;-49
2024/01/09 03:53:13;;;;;;;;;9.00;9.00;;;;;0.31;58.98;102318.81;5050636;28;60871;-51
2024/01/09 03:55:38;;;;;;;;;6.50;6.50;;;;;0.35;59.29;102327.59;5054872;28;45708;-51
2024/01/09 03:58:03;;;;;;;;;5.50;5.25;;;;;0.35;59.32;102324.97;5056220;28;67058;-52
2024/01/09 04:00:29;;;;;;;;;12.25;9.00;;;;;0.39;59.34;102323.28;5071823;28;45461;-52
2024/01/09 04:02:54;;;;;;;;;12.25;9.25;;;;;0.37;58.95;102323.28;5068768;28;52912;-52
2024/01/09 04:05:19;;;;;;;;;7.50;6.25;;;;;0.38;58.74;102319.81;5069735;28;45371;-54
2024/01/09 04:07:45;;;;;;;;;6.00;6.00;;;;;0.37;58.58;102314.56;5068541;28;67103;-51
2024/01/09 04:10:10;;;;;;;;;8.25;7.00;;;;;0.38;59.43;102322.44;5073850;28;48921;-51
2024/01/09 04:12:35;;;;;;;;;7.50;6.75;;;;;0.36;58.53;102320.63;5070639;28;73445;-50
2024/01/09 04:15:00;;;;;;;;;4.00;4.00;;;;;0.36;59.31;102318.88;5068921;28;73048;-53
2024/01/09 04:17:27;;;;;;;;;3.00;3.00;;;;;0.37;59.30;102320.66;5071191;28;68058;-51
2024/01/09 04:19:52;;;;;;;;;5.75;5.75;;;;;0.38;58.66;102327.66;5059338;28;45411;-53
2024/01/09 04:22:17;;;;;;;;;10.00;9.00;;;;;0.41;59.11;102324.22;5061729;28;65158;-51
2024/01/09 04:24:43;;;;;;;;;7.00;5.75;;;;;0.41;59.03;102319.84;5067088;28;73233;-50
2024/01/09 04:27:08;;;;;;;;;8.25;7.00;;;;;0.40;58.91;102325.06;5064276;28;45677;-50
2024/01/09 04:29:33;;;;;;;;;12.75;8.00;;;;;0.39;59.79;102332.06;5071781;28;45386;-52
2024/01/09 04:31:59;;;;;;;;;6.50;6.50;;;;;0.37;58.41;102330.25;5072342;28;75693;-53
2024/01/09 04:34:24;;;;;;;;;9.75;6.75;;;;;0.37;58.95;102320.66;5070287;28;70132;-52
2024/01/09 04:36:49;;;;;;;;;5.75;5.50;;;;;0.38;59.22;102326.75;5071949;28;45291;-53
2024/01/09 04:39:15;;;;;;;;;8.00;5.00;;;;;0.38;59.26;102332.91;5068514;28;68514;-51
2024/01/09 04:41:40;;;;;;;;;9.50;7.00;;;;;0.41;58.94;102326.84;5066049;28;69791;-50
2024/01/09 04:44:05;;;;;;;;;7.25;6.75;;;;;0.41;58.51;102325.06;5074938;28;50390;-50
2024/01/09 04:46:31;;;;;;;;;8.00;5.00;;;;;0.42;59.43;102324.22;5056554;28;45716;-51
2024/01/09 04:48:56;;;;;;;;;9.25;9.25;;;;;0.43;59.21;102322.47;5061657;28;69415;-51
2024/01/09 04:51:21;;;;;;;;;7.50;7.50;;;;;0.44;59.29;102326.88;5061100;28;46767;-52
2024/01/09 04:53:47;;;;;;;;;6.50;6.50;;;;;0.44;58.81;102321.63;5069664;28;71513;-50
2024/01/09 04:56:12;;;;;;;;;17.25;8.75;;;;;0.44;58.71;102324.25;5059116;28;45441;-51
2024/01/09 04:58:38;;;;;;;;;11.75;6.25;;;;;0.43;58.63;102327.72;5061878;28;45399;-52
2024/01/09 05:01:03;;;;;;;;;9.25;7.75;;;;;0.39;58.89;102326.81;5064980;28;48288;-49
2024/01/09 05:03:28;;;;;;;;;6.00;6.00;;;;;0.40;59.44;102330.31;5074891;28;45511;-52
2024/01/09 05:05:54;;;;;;;;;6.25;6.25;;;;;0.37;59.11;102330.25;5073013;28;63270;-53
2024/01/09 05:08:19;;;;;;;;;14.50;12.00;;;;;0.34;58.57;102325.84;5076492;28;45521;-52
2024/01/09 05:10:44;;;;;;;;;5.50;5.00;;;;;0.32;58.90;102324.94;5066059;28;46048;-53
2024/01/09 05:13:10;;;;;;;;;6.25;5.00;;;;;0.34;59.69;102320.63;5067307;28;63932;-52
2024/01/09 05:15:35;;;;;;;;;8.25;8.25;;;;;0.37;59.43;102320.66;5073545;28;45454;-53
2024/01/09 05:18:01;;;;;;;;;10.50;6.75;;;;;0.39;59.42;102318.06;5075801;28;70270;-52
2024/01/09 05:20:27;;;;;;;;;10.00;6.25;;;;;0.38;59.08;102324.13;5073693;28;46190;-53
2024/01/09 05:22:52;;;;;;;;;5.00;3.00;;;;;0.36;58.88;102329.34;5062928;28;45449;-52
2024/01/09 05:25:17;;;;;;;;;10.00;6.50;;;;;0.30;59.51;102321.41;5064832;28;48709;-53
2024/01/09 05:27:43;;;;;;;;;3.00;2.00;;;;;0.31;59.45;102325.78;5071672;28;68312;-50
2024/01/09 05:30:08;;;;;;;;;9.00;7.25;;;;;0.36;59.58;102325.88;5059971;28;73583;-53
2024/01/09 05:32:34;;;;;;;;;18.75;12.00;;;;;0.35;59.39;102324.97;5064539;28;45488;-51
2024/01/09 05:35:01;;;;;;;;;12.75;10.75;;;;;0.33;59.62;102324.09;5072740;28;65160;-52
2024/01/09 05:37:26;;;;;;;;;9.25;6.75;;;;;0.30;59.49;102318.78;5073279;28;45556;-52
2024/01/09 05:39:52;;;;;;;;;6.75;6.75;;;;;0.31;58.84;102320.53;5069763;28;46069;-51
2024/01/09 05:42:17;;;;;;;;;9.50;8.00;;;;;0.32;59.78;102317.06;5065123;28;69732;-53
2024/01/09 05:44:42;;;;;;;;;6.00;6.00;;;;;0.33;59.09;102314.47;5073394;28;45391;-53
2024/01/09 05:47:08;;;;;;;;;9.50;6.75;;;;;0.32;59.58;102319.69;5070184;28;65660;-53
2024/01/09 05:49:33;;;;;;;;;10.25;7.75;;;;;0.33;60.01;102316.22;5079367;28;46360;-53
2024/01/09 05:51:58;;;;;;;;;10.25;8.25;;;;;0.35;59.18;102317.13;5059074;28;75153;-53
2024/01/09 05:54:23;;;;;;;;;11.00;9.00;;;;;0.38;59.02;102314.56;5070740;28;45399;-53
2024/01/09 05:56:49;;;;;;;;;9.00;6.00;;;;;0.40;60.18;102315.47;5065411;28;70490;-54
2024/01/09 05:59:15;;;;;;;;;12.25;8.00;;;;;0.42;60.32;102308.53;5070663;28;75576;-53
2024/01/09 06:01:40;;;;;;;;;19.00;12.75;;;;;0.44;58.86;102313.78;5064407;28;45571;-54
2024/01/09 06:04:05;;;;;;;;;14.00;12.25;;;;;0.44;59.82;102309.44;5071821;28;46088;-54
2024/01/09 06:06:31;;;;;;;;;15.50;12.75;;;;;0.45;59.81;102315.53;5076191;28;45587;-53
2024/01/09 06:08:57;;;;;;;;;14.00;11.75;;;;;0.45;59.57;102320.78;5076065;28;45323;-52
2024/01/09 06:11:22;;;;;;;;;16.00;10.00;;;;;0.44;58.42;102321.63;5068161;28;66348;-53
2024/01/09 06:13:47;;;;;;;;;12.25;11.00;;;;;0.43;58.87;102319.88;5080053;28;63897;-51
2024/01/09 06:16:13;;;;;;;;;11.25;9.75;;;;;0.43;58.64;102325.09;5073871;28;45604;-54
2024/01/09 06:18:38;;;;;;;;;10.75;10.00;;;;;0.44;59.15;102321.63;5067540;28;67589;-53
2024/01/09 06:21:04;;;;;;;;;25.25;15.50;;;;;0.44;58.49;102329.50;5075217;28;45929;-51
2024/01/09 06:23:29;;;;;;;;;10.25;6.00;;;;;0.39;58.20;102328.53;5068396;28;45668;-50
2024/01/09 06:25:54;;;;;;;;;10.75;10.75;;;;;0.35;58.97;102324.09;5079239;28;68607;-52
2024/01/09 06:28:20;;;;;;;;;14.50;10.00;;;;;0.32;58.42;102333.66;5078440;28;72996;-52
2024/01/09 06:30:45;;;;;;;;;12.75;10.25;;;;;0.32;59.10;102331.03;5063561;28;45678;-52
2024/01/09 06:33:11;;;;;;;;;10.50;10.50;;;;;0.36;58.78;102333.72;5060535;28;45319;-53
2024/01/09 06:35:36;;;;;;;;;16.00;13.75;;;;;0.37;58.66;102331.13;5073881;28;45531;-53
2024/01/09 06:38:01;;;;;;;;;17.00;12.00;;;;;0.38;58.78;102330.28;5059031;28;74135;-55
2024/01/09 06:40:27;;;;;;;;;18.25;12.25;;;;;0.36;59.05;102325.88;5075275;28;68367;-53
2024/01/09 06:42:52;;;;;;;;;17.50;13.75;;;;;0.36;58.46;102326.75;5052776;28;45739;-52
2024/01/09 06:45:18;;;;;;;;;11.25;11.00;;;;;0.37;59.60;102323.28;5059851;28;45524;-52
2024/01/09 06:47:44;;;;;;;;;13.00;9.00;;;;;0.38;59.00;102326.75;5076956;28;45496;-50
2024/01/09 06:50:09;;;;;;;;;10.75;10.75;;;;;0.40;58.87;102328.53;5061844;28;45393;-53
2024/01/09 06:52:34;;;;;;;;;15.25;10.50;;;;;0.40;58.87;102325.94;5079276;28;45526;-54
2024/01/09 06:55:00;;;;;;;;;15.00;12.75;;;;;0.42;59.13;102333.84;5065631;28;45420;-53
2024/01/09 06:57:25;;;;;;;;;10.00;10.00;;;;;0.43;59.12;102330.34;5074977;28;46284;-52
2024/01/09 06:59:51;;;;;;;;;13.75;12.00;;;;;0.43;58.78;102336.47;5074353;28;45623;-52
2024/01/09 07:02:17;;;;;;;;;12.00;11.00;;;;;0.38;59.33;102327.66;5068029;28;45712;-55
2024/01/09 07:04:43;;;;;;;;;14.00;10.00;;;;;0.40;59.35;102331.16;5072698;28;45626;-52
2024/01/09 07:07:09;;;;;;;;;11.00;11.00;;;;;0.46;59.35;102330.41;5078415;28;73165;-54
2024/01/09 07:09:34;;;;;;;;;11.25;9.75;;;;;0.52;59.28;102337.47;5061843;28;46083;-55
2024/01/09 07:11:59;;;;;;;;;23.50;15.00;;;;;0.55;58.88;102329.66;5068633;28;53849;-55
2024/01/09 07:14:25;;;;;;;;;13.75;12.25;;;;;0.52;59.04;102334.84;5079029;28;70382;-54
2024/01/09 07:16:50;;;;;;;;;19.50;12.25;;;;;0.49;58.20;102339.16;5077609;28;46365;-56
2024/01/09 07:19:16;;;;;;;;;17.25;13.75;;;;;0.49;58.91;102328.69;5079010;28;45396;-54
2024/01/09 07:21:41;;;;;;;;;27.25;13.00;;;;;0.52;59.14;102338.34;5079502;28;45374;-53
2024/01/09 07:24:07;;;;;;;;;24.00;15.00;;;;;0.47;58.44;102340.91;5077612;28;62822;-54
2024/01/09 07:26:38;;;;;;;;;10.75;10.00;;;;;0.44;58.13;102342.59;5069304;28;62771;-54
2024/01/09 07:29:03;;;;;;;;;26.50;14.25;;;;;0.40;58.90;102340.78;5061363;28;45501;-54
2024/01/09 07:31:29;;;;;;;;;18.50;15.50;;;;;0.37;58.37;102335.50;5066538;28;71016;-53
2024/01/09 07:33:55;;;;;;;;;24.50;18.00;;;;;0.31;57.55;102337.16;5074644;28;45529;-54
2024/01/09 07:36:21;;;;;;;;;15.00;14.25;;;;;0.28;58.34;102333.59;5057109;28;45766;-53
2024/01/09 07:38:46;;;;;;;;;18.75;14.25;;;;;0.24;58.53;102337.03;5074199;28;45332;-54
2024/01/09 07:41:12;;;;;;;;;14.50;10.50;;;;;0.21;58.66;102335.22;5067252;28;45485;-53
2024/01/09 07:43:37;;;;;;;;;14.25;11.75;;;;;0.20;58.33;102337.81;5070806;28;45710;-51
2024/01/09 07:46:03;;;;;;;;;15.75;14.75;;;;;0.20;58.17;102343.06;5072343;28;46098;-51
2024/01/09 07:48:28;;;;;;;;;24.75;19.50;;;;;0.15;58.66;102343.84;5066094;28;45308;-52
2024/01/09 07:50:56;;;;;;;;;19.25;13.00;;;;;0.13;58.84;102336.81;5044715;28;65421;-54
2024/01/09 07:53:21;;;;;;;;;25.75;17.00;;;;;0.12;58.21;102345.53;5067086;28;45622;-55
2024/01/09 07:55:46;;;;;;;;;20.00;15.00;;;;;0.14;59.46;102341.19;5061244;28;46152;-49
2024/01/09 07:58:12;;;;;;;;;19.75;14.00;;;;;0.13;58.15;102340.31;5071610;28;70651;-52
2024/01/09 08:00:37;;;;;;;;;18.50;17.00;;;;;0.15;59.28;102343.84;5072479;28;63227;-52
2024/01/09 08:03:05;;;;;;;;;15.00;14.25;;;;;0.08;58.19;102344.59;5065133;28;67990;-51
2024/01/09 08:05:31;;;;;;;;;20.75;14.75;;;;;0.07;59.24;102349.81;5076698;28;74382;-50
2024/01/09 08:07:56;;;;;;;;;12.25;12.25;;;;;0.07;59.10;102355.91;5075961;28;45507;-50
2024/01/09 08:10:21;;;;;;;;;19.00;13.00;;;;;0.07;58.98;102348.06;5064104;28;68111;-50
2024/01/09 08:12:47;;;;;;;;;19.75;17.00;;;;;0.10;58.52;102347.22;5065111;28;70780;-49
2024/01/09 08:15:12;;;;;;;;;13.00;12.50;;;;;0.12;59.32;102351.63;5047735;28;54455;-50
2024/01/09 08:17:38;;;;;;;;;4.00;1.50;;;;;0.17;58.66;102354.34;5056067;28;45449;-50
2024/01/09 08:20:03;;;;;;;;;19.50;16.75;;;;;0.21;58.80;102355.25;5071548;28;68377;-52
2024/01/09 08:22:29;;;;;;;;;14.00;12.25;;;;;0.20;58.46;102354.41;5062544;28;45434;-50
2024/01/09 08:24:54;;;;;;;;;21.50;20.75;;;;;0.19;58.47;102355.25;5074143;28;70001;-49
2024/01/09 08:27:19;;;;;;;;;17.00;14.75;;;;;0.21;58.39;102357.88;5078396;28;54339;-50
2024/01/09 08:29:45;;;;;;;;;22.00;13.50;;;;;0.23;58.21;102366.66;5077928;28;68121;-50
2024/01/09 08:32:15;;;;;;;;;15.75;12.25;;;;;0.23;56.58;102372.75;5078441;28;45384;-49
2024/01/09 08:34:40;;;;;;;;;19.50;15.00;;;;;0.21;57.52;102368.34;5068430;28;46209;-53
2024/01/09 08:37:05;;;;;;;;;12.25;11.00;;;;;0.21;57.77;102361.41;5072012;28;45450;-51
2024/01/09 08:39:31;;;;;;;;;15.50;14.00;;;;;0.24;57.86;102366.69;5061543;28;69015;-53
2024/01/09 08:41:56;;;;;;;;;14.25;12.00;;;;;0.26;57.09;102370.22;5066562;28;69337;-54
2024/01/09 08:44:22;;;;;;;;;23.75;18.75;;;;;0.25;56.93;102376.31;5069870;28;45374;-52
2024/01/09 08:46:48;;;;;;;;;20.75;18.00;;;;;0.24;57.63;102371.03;5074176;28;45798;-53
2024/01/09 08:49:13;;;;;;;;;17.00;10.50;;;;;0.27;57.52;102371.09;5066008;28;45421;-53
2024/01/09 08:51:38;;;;;;;;;19.25;15.00;;;;;0.32;57.57;102374.66;5077996;28;66457;-52
2024/01/09 08:54:04;;;;;;;;;9.00;9.00;;;;;0.36;56.34;102375.63;5077059;28;74556;-49
2024/01/09 08:56:29;;;;;;;;;20.50;15.75;;;;;0.38;57.06;102379.13;5076788;28;45363;-49
2024/01/09 08:58:54;;;;;;;;;16.25;13.50;;;;;0.38;57.08;102376.50;5071071;28;45680;-52
2024/01/09 09:01:21;;;;;;;;;19.25;18.25;;;;;0.36;56.78;102375.63;5069724;28;45582;-54
2024/01/09 09:03:47;;;;;;;;;24.75;18.00;;;;;0.32;57.70;102379.91;5073410;28;46335;-51
2024/01/09 09:06:12;;;;;;;;;14.75;11.00;;;;;0.33;57.25;102376.44;5053093;28;45505;-54
2024/01/09 09:08:39;;;;;;;;;23.25;19.25;;;;;0.32;57.54;102380.78;5063022;28;45430;-51
2024/01/09 09:11:06;;;;;;;;;19.50;18.25;;;;;0.28;56.86;102383.34;5068456;28;45351;-50
2024/01/09 09:13:32;;;;;;;;;24.25;18.50;;;;;0.25;56.64;102378.91;5058033;28;47102;-48
2024/01/09 09:15:57;;;;;;;;;17.25;14.50;;;;;0.26;57.49;102377.16;5071869;28;68550;-49
2024/01/09 09:18:22;;;;;;;;;28.50;20.00;;;;;0.27;56.79;102373.72;5069986;28;69426;-50
2024/01/09 09:20:48;;;;;;;;;19.00;14.50;;;;;0.28;55.89;102389.44;5073798;28;46560;-52
2024/01/09 09:23:13;;;;;;;;;14.25;11.50;;;;;0.32;56.13;102378.16;5059429;28;47240;-50
2024/01/09 09:25:39;;;;;;;;;19.50;15.00;;;;;0.44;56.52;102380.13;5070491;28;45546;-50
2024/01/09 09:28:04;;;;;;;;;15.25;14.00;;;;;0.54;56.32;102375.06;5059213;28;45553;-50
2024/01/09 09:30:30;;;;;;;;;17.25;15.00;;;;;0.59;56.06;102382.13;5061847;28;45701;-53
2024/01/09 09:32:58;;;;;;;;;16.75;12.75;;;;;0.73;56.44;102378.84;5073170;28;45559;-51
2024/01/09 09:35:23;;;;;;;;;27.75;15.00;;;;;0.85;55.71;102378.16;5075263;28;45456;-50
2024/01/09 09:37:48;;;;;;;;;25.75;18.75;;;;;0.87;54.77;102373.81;5049341;28;45476;-51
2024/01/09 09:40:14;;;;;;;;;9.00;8.75;;;;;0.91;54.84;102375.63;5071680;28;48053;-53
2024/01/09 09:42:42;;;;;;;;;19.75;18.25;;;;;0.94;55.05;102371.31;5078570;28;46247;-53
2024/01/09 09:45:10;;;;;;;;;13.50;6.75;;;;;0.98;55.34;102370.50;5063962;28;45471;-50
2024/01/09 09:47:35;;;;;;;;;19.50;15.00;;;;;0.99;55.33;102368.75;5059267;28;45430;-49
2024/01/09 09:50:01;;;;;;;;;21.75;18.75;;;;;1.01;53.81;102377.53;5061603;28;65069;-50
2024/01/09 09:52:27;;;;;;;;;30.25;19.00;;;;;1.02;54.38;102373.16;5077674;28;45289;-51
2024/01/09 09:54:54;;;;;;;;;18.75;15.50;;;;;1.09;55.11;102373.28;5050764;28;45351;-53
2024/01/09 09:57:20;;;;;;;;;20.50;17.50;;;;;1.12;54.28;102370.72;5060391;28;68099;-51
2024/01/09 09:59:46;;;;;;;;;21.25;18.75;;;;;1.13;53.78;102375.09;5074487;28;45529;-50
2024/01/09 10:02:20;;;;;;;;;17.50;17.00;;;;;1.09;52.93;102369.78;5063410;28;46112;-51
2024/01/09 10:04:47;;;;;;;;;24.25;24.25;;;;;1.08;54.15;102370.63;5064294;28;45413;-52
2024/01/09 10:07:14;;;;;;;;;15.25;14.25;;;;;1.13;53.96;102382.97;5044522;28;45567;-53
2024/01/09 10:09:46;;;;;;;;;24.00;15.25;;;;;1.12;53.47;102378.59;5075825;28;45438;-49
2024/01/09 10:12:11;;;;;;;;;31.50;17.75;;;;;1.12;52.99;102370.72;5055713;28;47264;-49
2024/01/09 10:14:36;;;;;;;;;23.00;17.50;;;;;1.13;53.52;102377.72;5061366;28;65894;-50
2024/01/09 10:17:05;;;;;;;;;25.00;22.75;;;;;1.06;53.38;102370.63;5038353;28;51775;-50
2024/01/09 10:19:30;;;;;;;;;19.75;16.00;;;;;0.98;52.84;102365.25;5066328;28;45301;-51
2024/01/09 10:21:56;;;;;;;;;19.75;18.00;;;;;0.95;53.89;102372.19;5056428;28;46207;-50
2024/01/09 10:24:21;;;;;;;;;17.00;15.50;;;;;0.99;54.32;102374.00;5057565;28;64994;-51
2024/01/09 10:26:50;;;;;;;;;19.75;15.25;;;;;1.05;53.84;102368.84;5070470;28;55393;-50
2024/01/09 10:29:16;;;;;;;;;16.25;12.50;;;;;1.09;53.59;102372.41;5076683;28;45403;-49
2024/01/09 10:31:44;;;;;;;;;29.00;16.50;;;;;1.10;53.02;102374.19;5060441;28;64631;-51
2024/01/09 10:34:10;;;;;;;;;22.75;16.50;;;;;1.07;53.19;102364.53;5075280;28;45249;-52
2024/01/09 10:36:36;;;;;;;;;25.00;23.50;;;;;1.02;53.89;102368.81;5064318;28;45362;-51
2024/01/09 10:39:05;;;;;;;;;19.50;15.25;;;;;0.94;54.07;102365.19;5076959;28;45409;-52
2024/01/09 10:41:31;;;;;;;;;18.00;15.00;;;;;0.90;53.67;102356.41;5080492;28;46213;-56
2024/01/09 10:43:59;;;;;;;;;18.00;15.50;;;;;0.86;52.74;102351.09;5063974;28;45458;-50
2024/01/09 10:46:26;;;;;;;;;19.50;18.50;;;;;0.78;52.93;102349.25;5068320;28;45450;-52
2024/01/09 10:48:52;;;;;;;;;26.75;24.00;;;;;0.71;52.80;102346.50;5074288;28;45423;-49
2024/01/09 10:51:18;;;;;;;;;22.25;18.50;;;;;0.69;53.21;102359.56;5080244;28;45392;-52
2024/01/09 10:53:45;;;;;;;;;24.75;14.75;;;;;0.68;53.22;102357.81;5058813;28;71371;-49
2024/01/09 10:56:11;;;;;;;;;24.00;19.75;;;;;0.69;53.57;102349.09;5064562;28;45445;-51
2024/01/09 10:58:37;;;;;;;;;21.25;19.25;;;;;0.72;53.59;102353.50;5043502;28;45543;-51
2024/01/09 11:01:02;;;;;;;;;29.75;22.00;;;;;0.72;53.19;102353.50;5047165;28;53860;-49
2024/01/09 11:03:27;;;;;;;;;20.25;19.00;;;;;0.72;53.66;102349.16;5049364;28;67706;-49
2024/01/09 11:05:58;;;;;;;;;23.00;19.25;;;;;0.65;52.55;102349.91;5058725;28;68647;-49
2024/01/09 11:08:24;;;;;;;;;22.25;15.75;;;;;0.63;53.22;102343.78;5055436;28;45304;-50
2024/01/09 11:10:50;;;;;;;;;13.25;12.75;;;;;0.66;53.48;102351.66;5055960;28;67658;-52
2024/01/09 11:13:18;;;;;;;;;18.75;14.50;;;;;0.70;53.71;102350.84;5044863;28;47705;-49
2024/01/09 11:15:46;;;;;;;;;14.00;9.50;;;;;0.78;53.48;102350.97;5051282;28;45885;-49